Grecale — ILBG2 — position and weather

sailwx.info

Track history (hours):
 
Tides and Currents Weather Stations Pressure Air Temp Water Temp Dewpoint Dewpoint Depression Visibility Wind Speed Wind Dir Waves Ship Positions

Grecale

Last reported at 2018-Feb-19 02:14 UTC. Time now 2018-Feb-19 04:03 UTC.
Position N 39°38' E 016°57'.

Type: Fishing. MMSI: 247133470.

Date/timePositionNaut miles runAvg speedWind from/ knotsBaromVisibWave heightAir tempDewpointWater temp
2018-Feb-19 02:14N 39°38' E 016°57'2 7.3
2018-Feb-19 02:00N 39°38' E 016°55'4 7.3
2018-Feb-19 01:30N 39°36' E 016°51'3 2.5
2018-Feb-19 00:23N 39°37' E 016°48'5 8.1
2018-Feb-18 23:45N 39°39' E 016°42'4 9.2
2018-Feb-18 23:22N 39°39' E 016°37'  
2018-Feb-15 06:48N 39°40' E 016°32'3 6.7
2018-Feb-15 06:21N 39°43' E 016°33'7 3.3
2018-Feb-15 04:11N 39°50' E 016°32'1 2.9
2018-Feb-15 03:48N 39°51' E 016°32'1 2.7
2018-Feb-15 03:30N 39°51' E 016°33'2 2.7
2018-Feb-15 02:57N 39°52' E 016°34'0 0.9
2018-Feb-15 02:29N 39°52' E 016°35'2 1.8
2018-Feb-15 01:19N 39°51' E 016°32'1 2.5
2018-Feb-15 00:59N 39°50' E 016°32'2 2.5
2018-Feb-15 00:21N 39°49' E 016°31'6 1.6
2018-Feb-14 20:48N 39°52' E 016°37'1 2.7
2018-Feb-14 20:30N 39°53' E 016°38'1 2.7
2018-Feb-14 20:01N 39°54' E 016°39'1 2.6
2018-Feb-14 19:31N 39°55' E 016°40'1 2.6
2018-Feb-14 18:59N 39°56' E 016°41'1 2.6
2018-Feb-14 18:26N 39°57' E 016°42'1 1.8
2018-Feb-14 17:54N 39°58' E 016°42'2 2.5
2018-Feb-14 17:16N 39°57' E 016°41'1 2.6
2018-Feb-14 16:59N 39°56' E 016°41'1 1.9
2018-Feb-14 16:31N 39°55' E 016°41'10 2.2
2018-Feb-14 11:50N 40°05' E 016°47'1 2.7
2018-Feb-14 11:31N 40°05' E 016°47'1 2.7
2018-Feb-14 10:58N 40°07' E 016°48'2 2.8
2018-Feb-14 10:24N 40°08' E 016°49'1 2.7
2018-Feb-14 09:59N 40°09' E 016°49'2 2.9
2018-Feb-14 09:26N 40°11' E 016°50'2 3.7
2018-Feb-14 08:59N 40°12' E 016°50'2 1.7
2018-Feb-14 08:06N 40°11' E 016°49'0 2.6
2018-Feb-14 07:59N 40°11' E 016°49'5 2.6
2018-Feb-14 06:07N 40°06' E 016°47'0 2.8
2018-Feb-14 05:59N 40°06' E 016°47'2 2.7
2018-Feb-14 05:20N 40°04' E 016°46'1 0.9
2018-Feb-14 04:46N 40°05' E 016°46'1 2.5
2018-Feb-14 04:29N 40°04' E 016°45'1 2.6
2018-Feb-14 03:56N 40°03' E 016°44'2 2.5
2018-Feb-14 03:15N 40°01' E 016°44'1 2.6
2018-Feb-14 02:59N 40°00' E 016°43'1 2.6
2018-Feb-14 02:29N 39°59' E 016°43'1 2.6
2018-Feb-14 01:59N 39°58' E 016°42'2 2.6
2018-Feb-14 01:25N 39°57' E 016°42'2 2.9
2018-Feb-14 00:46N 39°55' E 016°41'3 7.4
2018-Feb-14 00:24N 39°52' E 016°39'14 1.0
2018-Feb-13 11:11N 39°40' E 016°32'1 5.8
2018-Feb-13 10:55N 39°41' E 016°33'3 5.4
2018-Feb-13 10:17N 39°44' E 016°35'2 1.5
2018-Feb-13 09:14N 39°43' E 016°37'1 2.6
2018-Feb-13 08:58N 39°43' E 016°37'1 2.6
2018-Feb-13 08:29N 39°41' E 016°38'4 2.5
2018-Feb-13 06:53N 39°39' E 016°42'6 1.0
2018-Feb-13 00:39N 39°37' E 016°50'1 3.4
2018-Feb-13 00:24N 39°37' E 016°49'1 1.3
2018-Feb-12 23:48N 39°37' E 016°50'1 0.1
2018-Feb-12 17:37N 39°36' E 016°50'1 3.9
2018-Feb-12 17:28N 39°35' E 016°50'3 2.5
2018-Feb-12 16:22N 39°37' E 016°47'6 0.6
2018-Feb-12 06:13N 39°34' E 016°54'6 1.1
2018-Feb-12 00:22N 39°37' E 016°47'6 7.4
2018-Feb-11 23:37N 39°39' E 016°40'1 8.1
2018-Feb-11 23:30N 39°39' E 016°39'  
Track history (hours):
 
Tides and Currents Weather Stations Pressure Air Temp Water Temp Dewpoint Dewpoint Depression Visibility Wind Speed Wind Dir Waves Ship Positions

Grecale

Last reported at 2018-Feb-19 02:14 UTC. Time now 2018-Feb-19 04:03 UTC.
Position N 39°38' E 016°57'.

Type: Fishing. MMSI: 247133470.

Date/timePositionNaut miles runAvg speedWind from/ knotsBaromVisibWave heightAir tempDewpointWater temp
2018-Feb-19 02:14N 39°38' E 016°57'2 7.3
2018-Feb-19 02:00N 39°38' E 016°55'4 7.3
2018-Feb-19 01:30N 39°36' E 016°51'3 2.5
2018-Feb-19 00:23N 39°37' E 016°48'5 8.1
2018-Feb-18 23:45N 39°39' E 016°42'4 9.2
2018-Feb-18 23:22N 39°39' E 016°37'  
2018-Feb-15 06:48N 39°40' E 016°32'3 6.7
2018-Feb-15 06:21N 39°43' E 016°33'7 3.3
2018-Feb-15 04:11N 39°50' E 016°32'1 2.9
2018-Feb-15 03:48N 39°51' E 016°32'1 2.7
2018-Feb-15 03:30N 39°51' E 016°33'2 2.7
2018-Feb-15 02:57N 39°52' E 016°34'0 0.9
2018-Feb-15 02:29N 39°52' E 016°35'2 1.8
2018-Feb-15 01:19N 39°51' E 016°32'1 2.5
2018-Feb-15 00:59N 39°50' E 016°32'2 2.5
2018-Feb-15 00:21N 39°49' E 016°31'6 1.6
2018-Feb-14 20:48N 39°52' E 016°37'1 2.7
2018-Feb-14 20:30N 39°53' E 016°38'1 2.7
2018-Feb-14 20:01N 39°54' E 016°39'1 2.6
2018-Feb-14 19:31N 39°55' E 016°40'1 2.6
2018-Feb-14 18:59N 39°56' E 016°41'1 2.6
2018-Feb-14 18:26N 39°57' E 016°42'1 1.8
2018-Feb-14 17:54N 39°58' E 016°42'2 2.5
2018-Feb-14 17:16N 39°57' E 016°41'1 2.6
2018-Feb-14 16:59N 39°56' E 016°41'1 1.9
2018-Feb-14 16:31N 39°55' E 016°41'10 2.2
2018-Feb-14 11:50N 40°05' E 016°47'1 2.7
2018-Feb-14 11:31N 40°05' E 016°47'1 2.7
2018-Feb-14 10:58N 40°07' E 016°48'2 2.8
2018-Feb-14 10:24N 40°08' E 016°49'1 2.7
2018-Feb-14 09:59N 40°09' E 016°49'2 2.9
2018-Feb-14 09:26N 40°11' E 016°50'2 3.7
2018-Feb-14 08:59N 40°12' E 016°50'2 1.7
2018-Feb-14 08:06N 40°11' E 016°49'0 2.6
2018-Feb-14 07:59N 40°11' E 016°49'5 2.6
2018-Feb-14 06:07N 40°06' E 016°47'0 2.8
2018-Feb-14 05:59N 40°06' E 016°47'2 2.7
2018-Feb-14 05:20N 40°04' E 016°46'1 0.9
2018-Feb-14 04:46N 40°05' E 016°46'1 2.5
2018-Feb-14 04:29N 40°04' E 016°45'1 2.6
2018-Feb-14 03:56N 40°03' E 016°44'2 2.5
2018-Feb-14 03:15N 40°01' E 016°44'1 2.6
2018-Feb-14 02:59N 40°00' E 016°43'1 2.6
2018-Feb-14 02:29N 39°59' E 016°43'1 2.6
2018-Feb-14 01:59N 39°58' E 016°42'2 2.6
2018-Feb-14 01:25N 39°57' E 016°42'2 2.9
2018-Feb-14 00:46N 39°55' E 016°41'3 7.4
2018-Feb-14 00:24N 39°52' E 016°39'14 1.0
2018-Feb-13 11:11N 39°40' E 016°32'1 5.8
2018-Feb-13 10:55N 39°41' E 016°33'3 5.4
2018-Feb-13 10:17N 39°44' E 016°35'2 1.5
2018-Feb-13 09:14N 39°43' E 016°37'1 2.6
2018-Feb-13 08:58N 39°43' E 016°37'1 2.6
2018-Feb-13 08:29N 39°41' E 016°38'4 2.5
2018-Feb-13 06:53N 39°39' E 016°42'6 1.0
2018-Feb-13 00:39N 39°37' E 016°50'1 3.4
2018-Feb-13 00:24N 39°37' E 016°49'1 1.3
2018-Feb-12 23:48N 39°37' E 016°50'1 0.1
2018-Feb-12 17:37N 39°36' E 016°50'1 3.9
2018-Feb-12 17:28N 39°35' E 016°50'3 2.5
2018-Feb-12 16:22N 39°37' E 016°47'6 0.6
2018-Feb-12 06:13N 39°34' E 016°54'6 1.1
2018-Feb-12 00:22N 39°37' E 016°47'6 7.4
2018-Feb-11 23:37N 39°39' E 016°40'1 8.1
2018-Feb-11 23:30N 39°39' E 016°39'  

Dump ship's entire track history